Airfield :
LOGIN :

Register | Disclaimer

   EN    FR    IT 

 










Legend :    VFR   Marginal VFR   IFR   Intensive IFR   Very Intensive IFR
Visi :
Ceiling :
>= 8 km
>= 3000ft
5 to 8 km
1000 to 3000 ft
1500m to 5 km
500 to 1000 ft
800 to 1500m
200 to 500 ft
< 800m
< 200 ft
Symbols :   Thunderstorms  Fog  Heavy snow  Heavy precipitations  Wind > 20 kt
SIGMETs :     Misc.  Thunderstorms  Icing  Turbulence  Mountain Waves  Volcanic Ashes







- Airport Elevation : 160 ft
- IATA code : LRT
- Download approach charts


LFRH - Lorient Lann Bihoue

CURRENT METAR :
  • 162200Z AUTO 07001KT 9999 SCT029 OVC068 11/10 Q1023 TEMPO 24010KT 3000 BR

EXPIRED METARs :
  • 162130Z AUTO 00000KT 9999 OVC030 12/11 Q1023 TEMPO 24010KT 3000 BR
  • 162100Z AUTO 00000KT 9999 SCT030 BKN094 12/11 Q1023 BECMG 24010KT
  • 162030Z AUTO 22003KT 9999 SCT031 SCT084 13/10 Q1023 NOSIG
  • 162000Z AUTO 25005KT 9999 SCT028 BKN033 BKN078 13/11 Q1023 NOSIG
  • 161930Z AUTO 26006KT 9999 FEW028 SCT076 BKN120 14/12 Q1022 NOSIG

TAF TAF LFRH
Valid from the 16 at 18:00 until the 17 at 18:00 UTC


161700Z 1618/1718 24010KT 9999 BKN030 OVC040
PROB30
TEMPO 1623/1706 VRB03KT 3000 BR
PROB30
TEMPO 1700/1709 5000 -RA
BECMG 1710/1712 07010G20KT BKN020
BECMG 1713/1715 OVC015
BECMG 1715/1717 11010KT
No reported NOTAMs for that airfield.



MET'MAP, your aeronautical weather chart ! - Copyright ORBIFLY December 2007 - Disclaimer

ORBIFLY MET'MAP TEAM :

Programming & Development : Alexandra Zaïnal
Concept & Development : Baudouin d'Aumeries
Co-Development & Prog : Marc-Olivier Méhu
Technical & hardware support : Manuel Goepfert

Contact : metmap@orbifly.com




SOURCES & CREDITS :

   NOAA